sensor_id;sensor_type;location;lat;lon;timestamp;pressure;altitude;pressure_sealevel;temperature;humidity
54870;BME280;40756;-37.950;145.008;2023-03-01T00:02:00;101141.54;;;18.59;48.31
54870;BME280;40756;-37.950;145.008;2023-03-01T00:04:30;101147.46;;;17.89;49.93
54870;BME280;40756;-37.950;145.008;2023-03-01T00:06:59;101152.18;;;17.95;51.18
54870;BME280;40756;-37.950;145.008;2023-03-01T00:09:29;101148.95;;;18.68;49.89
54870;BME280;40756;-37.950;145.008;2023-03-01T00:11:58;101156.26;;;18.95;50.89
54870;BME280;40756;-37.950;145.008;2023-03-01T00:14:28;101165.62;;;17.30;53.67
54870;BME280;40756;-37.950;145.008;2023-03-01T00:16:57;101169.99;;;18.48;53.09
54870;BME280;40756;-37.950;145.008;2023-03-01T00:19:27;101177.98;;;16.65;58.70
54870;BME280;40756;-37.950;145.008;2023-03-01T00:21:56;101172.79;;;17.89;57.65
54870;BME280;40756;-37.950;145.008;2023-03-01T00:24:26;101178.34;;;16.85;59.93
54870;BME280;40756;-37.950;145.008;2023-03-01T00:26:56;101182.44;;;16.77;60.17
54870;BME280;40756;-37.950;145.008;2023-03-01T00:29:27;101182.94;;;15.90;63.67
54870;BME280;40756;-37.950;145.008;2023-03-01T00:31:56;101179.62;;;15.40;64.06
54870;BME280;40756;-37.950;145.008;2023-03-01T00:34:26;101173.50;;;16.78;63.62
54870;BME280;40756;-37.950;145.008;2023-03-01T00:36:56;101169.79;;;16.69;63.04
54870;BME280;40756;-37.950;145.008;2023-03-01T00:39:25;101171.06;;;16.04;63.67
54870;BME280;40756;-37.950;145.008;2023-03-01T00:41:55;101168.02;;;17.34;60.58
54870;BME280;40756;-37.950;145.008;2023-03-01T00:44:24;101165.77;;;17.69;60.49
54870;BME280;40756;-37.950;145.008;2023-03-01T00:46:55;101171.47;;;17.02;62.72
54870;BME280;40756;-37.950;145.008;2023-03-01T00:49:25;101175.93;;;16.88;61.28
54870;BME280;40756;-37.950;145.008;2023-03-01T00:51:55;101177.43;;;15.94;61.61
54870;BME280;40756;-37.950;145.008;2023-03-01T00:54:25;101172.15;;;16.94;60.55
54870;BME280;40756;-37.950;145.008;2023-03-01T00:56:56;101172.91;;;17.57;60.48
54870;BME280;40756;-37.950;145.008;2023-03-01T00:59:25;101176.28;;;16.33;63.86
54870;BME280;40756;-37.950;145.008;2023-03-01T01:01:54;101174.94;;;16.44;62.51
54870;BME280;40756;-37.950;145.008;2023-03-01T01:04:24;101177.75;;;14.55;66.19
54870;BME280;40756;-37.950;145.008;2023-03-01T01:06:53;101176.32;;;15.45;66.46
54870;BME280;40756;-37.950;145.008;2023-03-01T01:09:25;101172.86;;;16.40;64.78
54870;BME280;40756;-37.950;145.008;2023-03-01T01:11:54;101171.28;;;16.34;64.82
54870;BME280;40756;-37.950;145.008;2023-03-01T01:14:24;101165.07;;;16.27;63.24
54870;BME280;40756;-37.950;145.008;2023-03-01T01:16:54;101161.36;;;16.51;62.83
54870;BME280;40756;-37.950;145.008;2023-03-01T01:19:24;101156.82;;;17.14;61.16
54870;BME280;40756;-37.950;145.008;2023-03-01T01:21:54;101157.55;;;16.58;61.50
54870;BME280;40756;-37.950;145.008;2023-03-01T01:24:23;101152.42;;;17.68;58.70
54870;BME280;40756;-37.950;145.008;2023-03-01T01:26:53;101153.04;;;16.72;61.08
54870;BME280;40756;-37.950;145.008;2023-03-01T01:29:22;101149.75;;;17.01;61.91
54870;BME280;40756;-37.950;145.008;2023-03-01T01:31:52;101142.75;;;17.69;59.35
54870;BME280;40756;-37.950;145.008;2023-03-01T01:34:22;101141.94;;;16.95;59.79
54870;BME280;40756;-37.950;145.008;2023-03-01T01:36:53;101148.23;;;17.79;60.48
54870;BME280;40756;-37.950;145.008;2023-03-01T01:39:23;101147.70;;;16.72;61.44
54870;BME280;40756;-37.950;145.008;2023-03-01T01:41:52;101140.63;;;16.68;63.61
54870;BME280;40756;-37.950;145.008;2023-03-01T01:44:23;101146.13;;;16.47;62.29
54870;BME280;40756;-37.950;145.008;2023-03-01T01:46:57;101137.46;;;17.03;61.00
54870;BME280;40756;-37.950;145.008;2023-03-01T01:49:32;101132.04;;;17.89;58.69
54870;BME280;40756;-37.950;145.008;2023-03-01T01:52:08;101134.11;;;17.34;58.21
54870;BME280;40756;-37.950;145.008;2023-03-01T01:54:43;101136.86;;;16.96;61.28
54870;BME280;40756;-37.950;145.008;2023-03-01T01:57:19;101131.96;;;18.09;58.66
54870;BME280;40756;-37.950;145.008;2023-03-01T01:59:52;101129.46;;;18.40;57.45
54870;BME280;40756;-37.950;145.008;2023-03-01T02:02:23;101132.64;;;17.56;58.77
54870;BME280;40756;-37.950;145.008;2023-03-01T02:04:58;101124.45;;;17.57;58.98
54870;BME280;40756;-37.950;145.008;2023-03-01T02:07:31;101116.11;;;19.25;55.39
54870;BME280;40756;-37.950;145.008;2023-03-01T02:10:02;101115.41;;;17.31;57.85
54870;BME280;40756;-37.950;145.008;2023-03-01T02:12:31;101109.67;;;18.76;56.46
54870;BME280;40756;-37.950;145.008;2023-03-01T02:15:01;101108.09;;;19.45;54.29
54870;BME280;40756;-37.950;145.008;2023-03-01T02:17:31;101101.34;;;19.94;51.61
54870;BME280;40756;-37.950;145.008;2023-03-01T02:20:09;101101.09;;;19.85;51.04
54870;BME280;40756;-37.950;145.008;2023-03-01T02:22:46;101102.34;;;18.96;52.00
54870;BME280;40756;-37.950;145.008;2023-03-01T02:25:26;101101.81;;;19.82;51.45
54870;BME280;40756;-37.950;145.008;2023-03-01T02:28:01;101098.60;;;20.97;49.32
54870;BME280;40756;-37.950;145.008;2023-03-01T02:30:35;101099.12;;;20.06;49.46
54870;BME280;40756;-37.950;145.008;2023-03-01T02:33:05;101097.96;;;20.97;46.62
54870;BME280;40756;-37.950;145.008;2023-03-01T02:35:37;101090.48;;;19.29;48.43
54870;BME280;40756;-37.950;145.008;2023-03-01T02:38:09;101084.86;;;21.48;47.64
54870;BME280;40756;-37.950;145.008;2023-03-01T02:40:40;101091.17;;;20.73;46.99
54870;BME280;40756;-37.950;145.008;2023-03-01T02:43:11;101094.68;;;19.89;46.76
54870;BME280;40756;-37.950;145.008;2023-03-01T02:45:49;101096.16;;;20.47;44.92
54870;BME280;40756;-37.950;145.008;2023-03-01T02:48:21;101095.72;;;19.69;46.28
54870;BME280;40756;-37.950;145.008;2023-03-01T02:51:04;101096.85;;;20.16;45.22
54870;BME280;40756;-37.950;145.008;2023-03-01T02:53:41;101094.69;;;19.58;46.39
54870;BME280;40756;-37.950;145.008;2023-03-01T02:56:17;101097.39;;;20.43;45.77
54870;BME280;40756;-37.950;145.008;2023-03-01T02:58:47;101101.82;;;18.74;45.09
54870;BME280;40756;-37.950;145.008;2023-03-01T03:01:16;101093.24;;;19.55;46.38
54870;BME280;40756;-37.950;145.008;2023-03-01T03:03:46;101096.86;;;20.42;44.53
54870;BME280;40756;-37.950;145.008;2023-03-01T03:06:15;101092.69;;;21.06;43.43
54870;BME280;40756;-37.950;145.008;2023-03-01T03:08:45;101082.40;;;20.99;42.27
54870;BME280;40756;-37.950;145.008;2023-03-01T03:11:14;101083.64;;;21.10;41.18
54870;BME280;40756;-37.950;145.008;2023-03-01T03:13:43;101085.35;;;21.42;40.11
54870;BME280;40756;-37.950;145.008;2023-03-01T03:16:13;101091.06;;;20.95;40.99
54870;BME280;40756;-37.950;145.008;2023-03-01T03:18:42;101085.33;;;22.76;39.06
54870;BME280;40756;-37.950;145.008;2023-03-01T03:21:13;101088.12;;;22.76;38.39
54870;BME280;40756;-37.950;145.008;2023-03-01T03:23:42;101091.42;;;23.13;36.91
54870;BME280;40756;-37.950;145.008;2023-03-01T03:26:11;101089.60;;;23.06;36.27
54870;BME280;40756;-37.950;145.008;2023-03-01T03:28:41;101090.19;;;23.89;36.67
54870;BME280;40756;-37.950;145.008;2023-03-01T03:31:10;101092.10;;;23.80;34.77
54870;BME280;40756;-37.950;145.008;2023-03-01T03:33:39;101096.08;;;24.10;35.10
54870;BME280;40756;-37.950;145.008;2023-03-01T03:36:09;101095.97;;;24.06;34.87
54870;BME280;40756;-37.950;145.008;2023-03-01T03:38:39;101099.21;;;24.26;34.68
54870;BME280;40756;-37.950;145.008;2023-03-01T03:41:10;101095.43;;;23.78;34.90
54870;BME280;40756;-37.950;145.008;2023-03-01T03:43:40;101100.65;;;23.92;34.35
54870;BME280;40756;-37.950;145.008;2023-03-01T03:46:10;101096.71;;;24.32;34.88
54870;BME280;40756;-37.950;145.008;2023-03-01T03:48:43;101091.07;;;24.40;34.54
54870;BME280;40756;-37.950;145.008;2023-03-01T03:51:14;101087.36;;;24.90;34.68
54870;BME280;40756;-37.950;145.008;2023-03-01T03:53:45;101083.31;;;24.02;35.06
54870;BME280;40756;-37.950;145.008;2023-03-01T03:56:14;101083.40;;;23.28;35.49
54870;BME280;40756;-37.950;145.008;2023-03-01T03:58:43;101079.53;;;23.85;35.25
54870;BME280;40756;-37.950;145.008;2023-03-01T04:01:13;101075.08;;;23.97;34.42
54870;BME280;40756;-37.950;145.008;2023-03-01T04:03:43;101079.35;;;23.34;34.35
54870;BME280;40756;-37.950;145.008;2023-03-01T04:06:12;101077.12;;;24.87;34.02
54870;BME280;40756;-37.950;145.008;2023-03-01T04:08:42;101080.74;;;25.43;34.85
54870;BME280;40756;-37.950;145.008;2023-03-01T04:11:12;101075.07;;;25.22;34.24
54870;BME280;40756;-37.950;145.008;2023-03-01T04:13:42;101075.38;;;24.26;35.90
54870;BME280;40756;-37.950;145.008;2023-03-01T04:16:11;101077.93;;;24.51;35.92
54870;BME280;40756;-37.950;145.008;2023-03-01T04:18:40;101084.60;;;24.31;36.57
54870;BME280;40756;-37.950;145.008;2023-03-01T04:21:10;101080.21;;;24.35;35.79
54870;BME280;40756;-37.950;145.008;2023-03-01T04:23:39;101079.80;;;25.01;34.83
54870;BME280;40756;-37.950;145.008;2023-03-01T04:26:10;101078.40;;;23.59;35.84
54870;BME280;40756;-37.950;145.008;2023-03-01T04:28:42;101072.52;;;23.82;35.85
54870;BME280;40756;-37.950;145.008;2023-03-01T04:31:13;101073.87;;;23.63;35.99
54870;BME280;40756;-37.950;145.008;2023-03-01T04:33:45;101069.56;;;24.18;35.80
54870;BME280;40756;-37.950;145.008;2023-03-01T04:36:16;101062.93;;;24.67;34.39
54870;BME280;40756;-37.950;145.008;2023-03-01T04:38:45;101066.63;;;24.65;33.58
54870;BME280;40756;-37.950;145.008;2023-03-01T04:41:17;101064.95;;;24.72;33.86
54870;BME280;40756;-37.950;145.008;2023-03-01T04:43:47;101064.45;;;25.07;34.04
54870;BME280;40756;-37.950;145.008;2023-03-01T04:46:19;101064.60;;;24.50;34.90
54870;BME280;40756;-37.950;145.008;2023-03-01T04:48:50;101064.62;;;23.37;35.55
54870;BME280;40756;-37.950;145.008;2023-03-01T04:51:20;101065.79;;;24.18;35.25
54870;BME280;40756;-37.950;145.008;2023-03-01T04:53:49;101067.59;;;23.47;35.84
54870;BME280;40756;-37.950;145.008;2023-03-01T04:56:19;101062.42;;;23.24;36.19
54870;BME280;40756;-37.950;145.008;2023-03-01T04:58:49;101058.81;;;23.69;36.31
54870;BME280;40756;-37.950;145.008;2023-03-01T05:01:20;101061.37;;;24.25;34.95
54870;BME280;40756;-37.950;145.008;2023-03-01T05:03:51;101048.49;;;23.39;36.06
54870;BME280;40756;-37.950;145.008;2023-03-01T05:06:22;101045.46;;;23.86;35.90
54870;BME280;40756;-37.950;145.008;2023-03-01T05:08:51;101043.93;;;24.48;35.34
54870;BME280;40756;-37.950;145.008;2023-03-01T05:11:20;101045.97;;;23.79;35.58
54870;BME280;40756;-37.950;145.008;2023-03-01T05:13:50;101045.18;;;24.60;34.80
54870;BME280;40756;-37.950;145.008;2023-03-01T05:16:20;101051.17;;;24.73;34.57
54870;BME280;40756;-37.950;145.008;2023-03-01T05:18:49;101047.08;;;24.29;34.57
54870;BME280;40756;-37.950;145.008;2023-03-01T05:21:19;101046.45;;;23.88;34.51
54870;BME280;40756;-37.950;145.008;2023-03-01T05:23:48;101043.92;;;23.79;35.01
54870;BME280;40756;-37.950;145.008;2023-03-01T05:26:19;101039.49;;;23.81;35.39
54870;BME280;40756;-37.950;145.008;2023-03-01T05:28:49;101039.13;;;24.19;33.68
54870;BME280;40756;-37.950;145.008;2023-03-01T05:31:19;101038.44;;;24.50;33.45
54870;BME280;40756;-37.950;145.008;2023-03-01T05:33:48;101039.39;;;24.33;32.93
54870;BME280;40756;-37.950;145.008;2023-03-01T05:36:17;101037.57;;;23.91;34.00
54870;BME280;40756;-37.950;145.008;2023-03-01T05:38:47;101040.25;;;22.58;34.87
54870;BME280;40756;-37.950;145.008;2023-03-01T05:41:16;101041.54;;;23.78;35.11
54870;BME280;40756;-37.950;145.008;2023-03-01T05:43:46;101033.38;;;23.90;33.15
54870;BME280;40756;-37.950;145.008;2023-03-01T05:46:15;101034.49;;;23.68;33.81
54870;BME280;40756;-37.950;145.008;2023-03-01T05:48:45;101033.74;;;23.31;33.79
54870;BME280;40756;-37.950;145.008;2023-03-01T05:51:15;101033.77;;;23.23;34.54
54870;BME280;40756;-37.950;145.008;2023-03-01T05:53:45;101034.92;;;23.65;33.46
54870;BME280;40756;-37.950;145.008;2023-03-01T05:56:15;101038.22;;;22.89;34.07
54870;BME280;40756;-37.950;145.008;2023-03-01T05:58:44;101033.71;;;23.51;33.87
54870;BME280;40756;-37.950;145.008;2023-03-01T06:01:14;101030.67;;;23.46;33.87
54870;BME280;40756;-37.950;145.008;2023-03-01T06:03:43;101033.08;;;21.77;34.97
54870;BME280;40756;-37.950;145.008;2023-03-01T06:06:12;101038.42;;;23.12;34.37
54870;BME280;40756;-37.950;145.008;2023-03-01T06:08:42;101033.30;;;23.57;33.94
54870;BME280;40756;-37.950;145.008;2023-03-01T06:11:11;101039.85;;;22.82;34.55
54870;BME280;40756;-37.950;145.008;2023-03-01T06:13:42;101044.88;;;22.48;35.29
54870;BME280;40756;-37.950;145.008;2023-03-01T06:16:12;101039.92;;;23.01;35.22
54870;BME280;40756;-37.950;145.008;2023-03-01T06:18:42;101043.72;;;22.55;35.95
54870;BME280;40756;-37.950;145.008;2023-03-01T06:21:12;101041.95;;;23.11;35.30
54870;BME280;40756;-37.950;145.008;2023-03-01T06:23:41;101041.81;;;23.02;35.15
54870;BME280;40756;-37.950;145.008;2023-03-01T06:26:11;101042.26;;;23.45;35.29
54870;BME280;40756;-37.950;145.008;2023-03-01T06:28:40;101041.51;;;22.33;36.06
54870;BME280;40756;-37.950;145.008;2023-03-01T06:31:10;101043.30;;;22.92;36.34
54870;BME280;40756;-37.950;145.008;2023-03-01T06:33:39;101042.65;;;22.67;37.08
54870;BME280;40756;-37.950;145.008;2023-03-01T06:36:09;101044.35;;;22.61;36.60
54870;BME280;40756;-37.950;145.008;2023-03-01T06:38:39;101045.76;;;21.44;37.49
54870;BME280;40756;-37.950;145.008;2023-03-01T06:41:08;101049.80;;;21.64;36.64
54870;BME280;40756;-37.950;145.008;2023-03-01T06:43:38;101048.17;;;22.20;37.99
54870;BME280;40756;-37.950;145.008;2023-03-01T06:46:07;101046.39;;;22.65;35.68
54870;BME280;40756;-37.950;145.008;2023-03-01T06:48:37;101047.92;;;22.06;36.68
54870;BME280;40756;-37.950;145.008;2023-03-01T06:51:06;101048.10;;;22.15;35.82
54870;BME280;40756;-37.950;145.008;2023-03-01T06:53:36;101050.58;;;22.82;36.13
54870;BME280;40756;-37.950;145.008;2023-03-01T06:56:07;101053.84;;;21.57;36.24
54870;BME280;40756;-37.950;145.008;2023-03-01T06:58:36;101056.04;;;22.65;35.11
54870;BME280;40756;-37.950;145.008;2023-03-01T07:01:07;101056.46;;;22.10;35.74
54870;BME280;40756;-37.950;145.008;2023-03-01T07:03:37;101057.96;;;22.22;36.55
54870;BME280;40756;-37.950;145.008;2023-03-01T07:06:07;101061.36;;;22.87;34.58
54870;BME280;40756;-37.950;145.008;2023-03-01T07:08:36;101060.25;;;22.48;34.61
54870;BME280;40756;-37.950;145.008;2023-03-01T07:11:05;101063.59;;;22.32;35.37
54870;BME280;40756;-37.950;145.008;2023-03-01T07:13:35;101058.03;;;22.83;35.55
54870;BME280;40756;-37.950;145.008;2023-03-01T07:16:04;101061.43;;;22.84;35.46
54870;BME280;40756;-37.950;145.008;2023-03-01T07:18:34;101064.08;;;21.99;35.85
54870;BME280;40756;-37.950;145.008;2023-03-01T07:21:07;101062.64;;;21.32;35.66
54870;BME280;40756;-37.950;145.008;2023-03-01T07:23:36;101066.89;;;20.98;37.10
54870;BME280;40756;-37.950;145.008;2023-03-01T07:26:06;101066.65;;;21.85;36.95
54870;BME280;40756;-37.950;145.008;2023-03-01T07:28:36;101070.14;;;21.21;37.18
54870;BME280;40756;-37.950;145.008;2023-03-01T07:31:06;101068.65;;;21.11;37.65
54870;BME280;40756;-37.950;145.008;2023-03-01T07:33:36;101070.55;;;21.01;38.52
54870;BME280;40756;-37.950;145.008;2023-03-01T07:36:06;101068.08;;;21.33;38.06
54870;BME280;40756;-37.950;145.008;2023-03-01T07:38:35;101069.54;;;21.09;37.85
54870;BME280;40756;-37.950;145.008;2023-03-01T07:41:05;101069.36;;;20.99;37.57
54870;BME280;40756;-37.950;145.008;2023-03-01T07:43:34;101070.01;;;20.74;38.66
54870;BME280;40756;-37.950;145.008;2023-03-01T07:46:04;101067.23;;;21.39;37.96
54870;BME280;40756;-37.950;145.008;2023-03-01T07:48:35;101076.90;;;19.99;39.57
54870;BME280;40756;-37.950;145.008;2023-03-01T07:51:06;101073.74;;;20.86;38.52
54870;BME280;40756;-37.950;145.008;2023-03-01T07:53:37;101076.26;;;20.53;39.10
54870;BME280;40756;-37.950;145.008;2023-03-01T07:56:09;101078.10;;;20.31;38.69
54870;BME280;40756;-37.950;145.008;2023-03-01T07:58:41;101079.16;;;20.16;38.84
54870;BME280;40756;-37.950;145.008;2023-03-01T08:01:12;101078.30;;;19.47;39.75
54870;BME280;40756;-37.950;145.008;2023-03-01T08:03:43;101085.27;;;20.04;39.39
54870;BME280;40756;-37.950;145.008;2023-03-01T08:06:15;101082.85;;;20.49;38.53
54870;BME280;40756;-37.950;145.008;2023-03-01T08:08:45;101090.73;;;19.35;40.18
54870;BME280;40756;-37.950;145.008;2023-03-01T08:11:15;101088.20;;;19.47;39.05
54870;BME280;40756;-37.950;145.008;2023-03-01T08:13:46;101089.97;;;19.63;39.20
54870;BME280;40756;-37.950;145.008;2023-03-01T08:16:17;101091.18;;;19.67;39.35
54870;BME280;40756;-37.950;145.008;2023-03-01T08:18:46;101092.79;;;19.46;39.69
54870;BME280;40756;-37.950;145.008;2023-03-01T08:21:17;101097.79;;;19.92;39.23
54870;BME280;40756;-37.950;145.008;2023-03-01T08:23:47;101102.72;;;19.17;39.98
54870;BME280;40756;-37.950;145.008;2023-03-01T08:26:18;101099.47;;;19.68;39.17
54870;BME280;40756;-37.950;145.008;2023-03-01T08:28:49;101103.73;;;19.32;39.65
54870;BME280;40756;-37.950;145.008;2023-03-01T08:31:22;101103.77;;;18.78;40.53
54870;BME280;40756;-37.950;145.008;2023-03-01T08:33:53;101104.52;;;19.59;39.61
54870;BME280;40756;-37.950;145.008;2023-03-01T08:36:25;101108.87;;;19.21;41.85
54870;BME280;40756;-37.950;145.008;2023-03-01T08:38:55;101106.25;;;19.77;39.70
54870;BME280;40756;-37.950;145.008;2023-03-01T08:41:25;101109.99;;;19.52;40.59
54870;BME280;40756;-37.950;145.008;2023-03-01T08:43:55;101113.02;;;18.87;41.74
54870;BME280;40756;-37.950;145.008;2023-03-01T08:46:25;101117.19;;;19.72;40.86
54870;BME280;40756;-37.950;145.008;2023-03-01T08:48:54;101115.77;;;19.97;41.06
54870;BME280;40756;-37.950;145.008;2023-03-01T08:51:25;101122.95;;;19.19;41.79
54870;BME280;40756;-37.950;145.008;2023-03-01T08:53:55;101128.80;;;18.81;43.61
54870;BME280;40756;-37.950;145.008;2023-03-01T08:56:25;101129.21;;;19.15;43.18
54870;BME280;40756;-37.950;145.008;2023-03-01T08:58:55;101135.91;;;18.61;43.73
54870;BME280;40756;-37.950;145.008;2023-03-01T09:01:25;101134.97;;;19.14;42.86
54870;BME280;40756;-37.950;145.008;2023-03-01T09:03:54;101141.85;;;18.64;43.27
54870;BME280;40756;-37.950;145.008;2023-03-01T09:06:24;101148.26;;;18.76;44.90
54870;BME280;40756;-37.950;145.008;2023-03-01T09:08:53;101149.68;;;18.60;44.49
54870;BME280;40756;-37.950;145.008;2023-03-01T09:11:28;101153.30;;;17.73;44.40
54870;BME280;40756;-37.950;145.008;2023-03-01T09:14:19;101154.48;;;18.85;42.84
54870;BME280;40756;-37.950;145.008;2023-03-01T09:16:48;101159.53;;;18.72;42.60
54870;BME280;40756;-37.950;145.008;2023-03-01T09:19:18;101157.31;;;18.44;43.06
54870;BME280;40756;-37.950;145.008;2023-03-01T09:21:47;101161.74;;;18.57;42.62
54870;BME280;40756;-37.950;145.008;2023-03-01T09:24:17;101159.65;;;19.27;41.22
54870;BME280;40756;-37.950;145.008;2023-03-01T09:26:47;101162.22;;;18.72;41.40
54870;BME280;40756;-37.950;145.008;2023-03-01T09:29:18;101167.93;;;18.39;42.30
54870;BME280;40756;-37.950;145.008;2023-03-01T09:31:47;101168.45;;;18.98;42.00
54870;BME280;40756;-37.950;145.008;2023-03-01T09:34:17;101169.97;;;19.24;41.45
54870;BME280;40756;-37.950;145.008;2023-03-01T09:36:46;101175.69;;;18.90;41.87
54870;BME280;40756;-37.950;145.008;2023-03-01T09:39:16;101179.12;;;18.58;42.24
54870;BME280;40756;-37.950;145.008;2023-03-01T09:41:48;101184.28;;;18.61;42.89
54870;BME280;40756;-37.950;145.008;2023-03-01T09:44:29;101187.83;;;19.12;42.33
54870;BME280;40756;-37.950;145.008;2023-03-01T09:47:00;101185.77;;;19.04;42.66
54870;BME280;40756;-37.950;145.008;2023-03-01T09:49:33;101195.38;;;18.12;43.92
54870;BME280;40756;-37.950;145.008;2023-03-01T09:52:16;101198.34;;;18.64;43.62
54870;BME280;40756;-37.950;145.008;2023-03-01T09:54:53;101205.11;;;18.42;43.43
54870;BME280;40756;-37.950;145.008;2023-03-01T09:57:30;101205.37;;;18.46;43.92
54870;BME280;40756;-37.950;145.008;2023-03-01T10:00:13;101211.17;;;17.97;44.38
54870;BME280;40756;-37.950;145.008;2023-03-01T10:02:49;101215.00;;;17.96;44.57
54870;BME280;40756;-37.950;145.008;2023-03-01T10:05:34;101217.62;;;18.70;43.41
54870;BME280;40756;-37.950;145.008;2023-03-01T10:08:50;101222.05;;;18.86;43.53
54870;BME280;40756;-37.950;145.008;2023-03-01T10:11:25;101229.85;;;18.58;43.97
54870;BME280;40756;-37.950;145.008;2023-03-01T10:14:01;101234.67;;;18.81;43.28
54870;BME280;40756;-37.950;145.008;2023-03-01T10:16:40;101235.99;;;17.73;45.05
54870;BME280;40756;-37.950;145.008;2023-03-01T10:19:15;101240.96;;;18.96;43.90
54870;BME280;40756;-37.950;145.008;2023-03-01T10:21:47;101243.93;;;18.85;44.10
54870;BME280;40756;-37.950;145.008;2023-03-01T10:24:20;101248.15;;;17.93;44.93
54870;BME280;40756;-37.950;145.008;2023-03-01T10:26:55;101251.16;;;18.76;44.19
54870;BME280;40756;-37.950;145.008;2023-03-01T10:29:29;101252.13;;;19.01;43.96
54870;BME280;40756;-37.950;145.008;2023-03-01T10:31:59;101252.34;;;18.47;45.20
54870;BME280;40756;-37.950;145.008;2023-03-01T10:34:33;101256.35;;;18.19;45.19
54870;BME280;40756;-37.950;145.008;2023-03-01T10:37:12;101261.34;;;18.35;44.51
54870;BME280;40756;-37.950;145.008;2023-03-01T10:39:58;101257.01;;;18.22;44.48
54870;BME280;40756;-37.950;145.008;2023-03-01T10:42:31;101260.93;;;18.34;45.50
54870;BME280;40756;-37.950;145.008;2023-03-01T10:45:19;101265.42;;;18.03;45.64
54870;BME280;40756;-37.950;145.008;2023-03-01T10:48:08;101268.41;;;18.52;46.14
54870;BME280;40756;-37.950;145.008;2023-03-01T10:50:40;101276.85;;;17.73;47.94
54870;BME280;40756;-37.950;145.008;2023-03-01T10:53:23;101281.54;;;18.34;47.37
54870;BME280;40756;-37.950;145.008;2023-03-01T10:56:04;101282.78;;;18.26;46.69
54870;BME280;40756;-37.950;145.008;2023-03-01T10:58:36;101283.45;;;18.80;45.72
54870;BME280;40756;-37.950;145.008;2023-03-01T11:01:24;101289.21;;;18.17;46.26
54870;BME280;40756;-37.950;145.008;2023-03-01T11:04:12;101284.42;;;17.92;46.35
54870;BME280;40756;-37.950;145.008;2023-03-01T11:06:42;101284.73;;;18.63;45.42
54870;BME280;40756;-37.950;145.008;2023-03-01T11:09:18;101287.67;;;17.87;45.69
54870;BME280;40756;-37.950;145.008;2023-03-01T11:11:53;101287.45;;;17.82;46.19
54870;BME280;40756;-37.950;145.008;2023-03-01T11:14:26;101284.75;;;18.77;45.28
54870;BME280;40756;-37.950;145.008;2023-03-01T11:17:05;101286.13;;;18.80;45.17
54870;BME280;40756;-37.950;145.008;2023-03-01T11:19:35;101291.66;;;18.50;45.85
54870;BME280;40756;-37.950;145.008;2023-03-01T11:22:07;101289.93;;;18.29;46.54
54870;BME280;40756;-37.950;145.008;2023-03-01T11:24:42;101286.69;;;18.10;46.32
54870;BME280;40756;-37.950;145.008;2023-03-01T11:27:18;101291.91;;;18.24;46.04
54870;BME280;40756;-37.950;145.008;2023-03-01T11:29:52;101288.77;;;18.56;45.46
54870;BME280;40756;-37.950;145.008;2023-03-01T11:32:34;101287.03;;;18.38;46.14
54870;BME280;40756;-37.950;145.008;2023-03-01T11:35:13;101288.03;;;18.94;45.55
54870;BME280;40756;-37.950;145.008;2023-03-01T11:37:52;101297.97;;;17.49;47.84
54870;BME280;40756;-37.950;145.008;2023-03-01T11:40:29;101295.78;;;18.30;46.72
54870;BME280;40756;-37.950;145.008;2023-03-01T11:43:09;101294.43;;;18.46;46.31
54870;BME280;40756;-37.950;145.008;2023-03-01T11:45:54;101295.82;;;18.86;46.29
54870;BME280;40756;-37.950;145.008;2023-03-01T11:48:39;101297.94;;;18.08;46.82
54870;BME280;40756;-37.950;145.008;2023-03-01T11:51:22;101300.17;;;17.38;47.46
54870;BME280;40756;-37.950;145.008;2023-03-01T11:54:01;101297.78;;;18.86;45.47
54870;BME280;40756;-37.950;145.008;2023-03-01T11:56:38;101296.64;;;18.27;45.92
54870;BME280;40756;-37.950;145.008;2023-03-01T11:59:41;101297.81;;;18.74;44.54
54870;BME280;40756;-37.950;145.008;2023-03-01T12:02:34;101298.68;;;18.61;44.60
54870;BME280;40756;-37.950;145.008;2023-03-01T12:05:19;101300.64;;;18.52;44.87
54870;BME280;40756;-37.950;145.008;2023-03-01T12:07:56;101297.56;;;18.54;44.42
54870;BME280;40756;-37.950;145.008;2023-03-01T12:10:34;101292.89;;;18.93;44.13
54870;BME280;40756;-37.950;145.008;2023-03-01T12:13:20;101293.45;;;18.78;43.73
54870;BME280;40756;-37.950;145.008;2023-03-01T12:16:01;101291.83;;;18.46;43.64
54870;BME280;40756;-37.950;145.008;2023-03-01T12:18:51;101288.08;;;18.52;43.59
54870;BME280;40756;-37.950;145.008;2023-03-01T12:21:34;101285.09;;;18.20;43.91
54870;BME280;40756;-37.950;145.008;2023-03-01T12:25:22;101285.51;;;18.75;43.58
54870;BME280;40756;-37.950;145.008;2023-03-01T12:28:15;101284.31;;;18.43;43.81
54870;BME280;40756;-37.950;145.008;2023-03-01T12:31:20;101285.76;;;18.38;44.43
54870;BME280;40756;-37.950;145.008;2023-03-01T12:34:03;101282.23;;;18.88;42.62
54870;BME280;40756;-37.950;145.008;2023-03-01T12:36:48;101279.25;;;19.02;42.37
54870;BME280;40756;-37.950;145.008;2023-03-01T12:39:36;101273.96;;;19.10;41.67
54870;BME280;40756;-37.950;145.008;2023-03-01T12:42:19;101276.53;;;19.52;41.01
54870;BME280;40756;-37.950;145.008;2023-03-01T12:45:09;101278.76;;;19.14;41.57
54870;BME280;40756;-37.950;145.008;2023-03-01T12:47:59;101278.74;;;19.19;41.09
54870;BME280;40756;-37.950;145.008;2023-03-01T12:50:40;101278.14;;;19.18;41.61